Time;durP1;ratioP1;P1;durP2;ratioP2;P2;SDS_P1;SDS_P2;PMS_P1;PMS_P2;Temp;Humidity;BMP_temperature;BMP_pressure;BME280_temperature;BME280_humidity;BME280_pressure;Samples;Min_cycle;Max_cycle;Signal;HPM_P1;HPM_P2
2022/01/22 00:00:23;;;;;;;22.52;7.50;;;;;;;3.09;98.00;103168.72;4922372;29;20445;-89
2022/01/22 00:02:49;;;;;;;17.92;7.63;;;;;;;2.98;98.26;103154.25;4921919;29;20539;-89
2022/01/22 00:05:17;;;;;;;15.93;7.38;;;;;;;3.04;97.87;103158.31;4922203;29;20083;-89
2022/01/22 00:07:56;;;;;;;19.52;6.82;;;;;;;3.40;98.03;103213.00;4922231;29;20548;-90
2022/01/22 00:10:23;;;;;;;18.42;7.07;;;;;;;3.57;98.15;103257.41;4922303;29;20459;-89
2022/01/22 00:15:41;;;;;;;17.95;7.32;;;;;;;3.05;98.24;103161.84;4939554;29;20448;-89
2022/01/22 00:18:11;;;;;;;25.02;7.18;;;;;;;3.20;97.68;103182.19;4922375;29;20032;-89
2022/01/22 00:20:43;;;;;;;15.00;6.35;;;;;;;3.44;98.23;103210.94;4922222;29;20387;-90
2022/01/22 00:23:09;;;;;;;16.73;6.75;;;;;;;3.34;98.74;103202.69;4922266;29;20468;-91
2022/01/22 00:25:36;;;;;;;13.93;6.70;;;;;;;3.38;98.79;103206.00;4906731;29;20492;-89
2022/01/22 00:28:03;;;;;;;18.15;6.63;;;;;;;3.28;98.37;103190.56;4922243;29;20424;-90
2022/01/22 00:30:30;;;;;;;14.13;6.55;;;;;;;3.06;98.27;103158.22;4922334;29;20035;-90
2022/01/22 00:33:01;;;;;;;17.45;6.55;;;;;;;3.25;98.28;103182.75;4906355;29;20516;-90
2022/01/22 00:35:28;;;;;;;14.98;6.40;;;;;;;3.08;98.61;103142.84;4906779;29;20063;-90
2022/01/22 00:38:00;;;;;;;16.02;6.50;;;;;;;3.55;98.71;103220.91;4922239;29;20480;-89
2022/01/22 00:40:29;;;;;;;14.88;6.45;;;;;;;3.40;98.35;103196.03;4921829;29;20492;-89
2022/01/22 00:43:26;;;;;;;16.55;6.38;;;;;;;3.07;98.41;103141.13;4921830;29;20127;-90
2022/01/22 00:46:16;;;;;;;15.35;6.43;;;;;;;3.57;98.65;103222.50;4922053;29;20067;-90
2022/01/22 00:48:53;;;;;;;14.85;6.55;;;;;;;3.05;98.70;103135.88;4921184;29;20408;-92
2022/01/22 00:51:30;;;;;;;17.15;6.93;;;;;;;3.13;98.68;103146.03;4921847;29;20365;-90
2022/01/22 00:54:01;;;;;;;15.65;6.50;;;;;;;3.09;98.69;103140.06;4922270;29;20620;-90
2022/01/22 00:56:30;;;;;;;16.65;7.00;;;;;;;3.11;98.48;103151.53;4921623;29;20421;-89
2022/01/22 00:59:00;;;;;;;17.27;6.97;;;;;;;3.36;99.04;103192.69;4921700;29;20040;-88
2022/01/22 01:01:42;;;;;;;15.23;6.78;;;;;;;2.98;98.70;103129.22;4921778;29;20392;-89
2022/01/22 01:04:12;;;;;;;18.63;6.97;;;;;;;3.04;98.63;103135.97;4921721;29;20377;-90
2022/01/22 01:06:42;;;;;;;21.42;7.25;;;;;;;3.07;98.59;103158.09;4905843;29;20043;-90
2022/01/22 01:09:14;;;;;;;19.83;8.00;;;;;;;3.42;99.15;103207.50;4920977;29;20082;-89
2022/01/22 01:11:48;;;;;;;16.85;7.97;;;;;;;3.20;98.79;103168.78;4905825;29;20042;-89
2022/01/22 01:14:26;;;;;;;17.52;8.48;;;;;;;3.20;98.93;103176.00;4905995;29;20504;-89
2022/01/22 01:17:11;;;;;;;18.92;7.97;;;;;;;3.12;98.75;103163.13;4906423;29;20040;-89
2022/01/22 01:34:00;;;;;;;20.65;8.95;;;;;;;3.14;98.75;103139.72;4919089;29;20043;-89
2022/01/22 01:36:29;;;;;;;18.40;9.30;;;;;;;3.16;98.40;103137.81;4917592;29;20516;-89
2022/01/22 01:39:09;;;;;;;;;;;;;;;;;;;;;
2022/01/22 01:44:14;;;;;;;17.20;9.82;;;;;;;3.12;99.53;103147.03;4918182;29;20028;-90
2022/01/22 01:46:58;;;;;;;18.20;9.25;;;;;;;3.13;99.50;103157.66;4902628;29;20084;-90
2022/01/22 01:49:29;;;;;;;22.10;10.32;;;;;;;3.13;99.81;103157.66;4917891;29;20477;-90
2022/01/22 01:51:59;;;;;;;19.17;10.73;;;;;;;3.09;100.00;103164.19;4917403;29;20071;-89
2022/01/22 01:59:59;;;;;;;23.35;12.00;;;;;;;3.36;100.00;103203.44;4919199;29;19937;-90
2022/01/22 02:02:31;;;;;;;20.65;11.85;;;;;;;3.36;100.00;103206.13;4917034;29;20035;-89
2022/01/22 02:05:00;;;;;;;22.98;11.57;;;;;;;3.32;100.00;103188.50;4916668;29;20118;-89
2022/01/22 02:07:26;;;;;;;21.30;12.50;;;;;;;3.33;100.00;103192.94;4901413;29;20047;-89
2022/01/22 02:09:58;;;;;;;19.52;12.35;;;;;;;2.98;100.00;103127.44;4917254;29;20036;-90
2022/01/22 02:26:07;;;;;;;25.15;14.25;;;;;;;3.11;100.00;103148.84;4917475;29;20071;-90
2022/01/22 02:28:50;;;;;;;26.33;16.27;;;;;;;3.46;100.00;103198.28;4916828;29;20417;-90
2022/01/22 02:42:29;;;;;;;29.20;19.45;;;;;;;3.53;100.00;103229.09;4921487;29;20088;-89
2022/01/22 02:44:56;;;;;;;27.45;19.02;;;;;;;3.05;100.00;103141.25;4925468;29;20043;-88
2022/01/22 02:47:25;;;;;;;32.65;19.60;;;;;;;3.35;100.00;103207.06;4903226;29;20052;-89
2022/01/22 02:49:56;;;;;;;33.92;18.85;;;;;;;3.01;100.00;103146.94;4885406;29;20037;-89
2022/01/22 02:52:28;;;;;;;31.80;19.20;;;;;;;3.05;100.00;103153.81;4916391;29;20032;-89
2022/01/22 02:54:57;;;;;;;28.52;19.55;;;;;;;3.48;100.00;103225.84;4916427;29;20032;-90
2022/01/22 02:57:27;;;;;;;32.05;19.30;;;;;;;3.34;100.00;103194.66;4916171;29;20052;-89
2022/01/22 02:59:58;;;;;;;29.73;18.25;;;;;;;3.39;100.00;103210.41;4916484;29;20036;-89
2022/01/22 03:02:25;;;;;;;32.35;19.23;;;;;;;3.39;100.00;103205.06;4900828;29;20103;-89
2022/01/22 03:04:51;;;;;;;32.58;20.42;;;;;;;3.41;100.00;103203.09;4899799;29;20064;-90
2022/01/22 03:07:25;;;;;;;34.53;20.13;;;;;;;3.40;100.00;103210.31;4916412;29;20468;-90
2022/01/22 03:10:12;;;;;;;30.27;20.00;;;;;;;3.60;100.00;103242.91;4900616;29;20477;-89
2022/01/22 03:15:32;;;;;;;35.63;20.00;;;;;;;3.32;100.00;103191.19;4916038;29;20036;-90
2022/01/22 03:20:59;;;;;;;31.80;20.10;;;;;;;3.41;100.00;103198.63;4917438;29;20389;-89
2022/01/22 03:29:08;;;;;;;36.00;21.67;;;;;;;3.17;100.00;103160.97;4931229;29;20115;-89
2022/01/22 03:31:36;;;;;;;32.38;21.60;;;;;;;3.57;100.00;103233.22;4919310;29;20039;-89
2022/01/22 03:34:02;;;;;;;33.45;22.75;;;;;;;3.32;100.00;103196.56;4919023;29;20036;-89
2022/01/22 03:36:33;;;;;;;32.78;21.58;;;;;;;3.10;100.00;103149.81;4918917;29;20408;-89
2022/01/22 03:39:04;;;;;;;36.38;23.00;;;;;;;3.43;100.00;103199.34;4918510;29;20396;-89
2022/01/22 03:41:30;;;;;;;39.70;23.88;;;;;;;3.43;100.00;103193.97;4918660;29;20187;-89
2022/01/22 03:44:08;;;;;;;37.45;23.60;;;;;;;3.18;100.00;103153.78;4903674;29;20051;-89
2022/01/22 03:46:36;;;;;;;34.92;23.83;;;;;;;3.49;100.00;103204.28;4918260;29;20460;-89
2022/01/22 03:49:04;;;;;;;34.65;23.73;;;;;;;3.66;100.00;103231.72;4918754;29;20114;-88
2022/01/22 03:51:31;;;;;;;36.22;24.20;;;;;;;3.22;100.00;103163.31;4918621;29;20396;-89
2022/01/22 03:53:58;;;;;;;35.10;25.08;;;;;;;3.51;100.00;103212.22;4918598;29;20039;-89
2022/01/22 03:56:26;;;;;;;35.63;25.48;;;;;;;3.57;100.00;103218.97;4918925;29;20122;-89
2022/01/22 03:59:01;;;;;;;41.97;26.63;;;;;;;3.18;100.00;103154.63;4918609;29;20038;-89
2022/01/22 04:04:00;;;;;;;47.75;28.90;;;;;;;3.35;100.00;103182.94;4934827;29;20146;-89
2022/01/22 04:07:01;;;;;;;39.97;28.98;;;;;;;3.23;100.00;103160.50;4919015;29;20063;-89
2022/01/22 04:09:19;;;;;;;41.67;28.58;;;;;;;3.24;100.00;103154.19;4921498;29;20115;-88
2022/01/22 04:11:47;;;;;;;44.70;30.45;;;;;;;3.18;100.00;103146.59;4918941;29;20038;-89
2022/01/22 04:14:21;;;;;;;43.03;29.92;;;;;;;3.19;100.00;103142.94;4918944;29;20032;-89
2022/01/22 04:17:05;;;;;;;48.42;30.75;;;;;;;3.37;100.00;103183.69;4922557;29;20067;-88
2022/01/22 04:25:04;;;;;;;47.13;31.70;;;;;;;3.38;100.00;103181.84;4939168;29;20397;-89
2022/01/22 04:27:31;;;;;;;47.95;32.17;;;;;;;3.52;100.00;103200.50;4921734;29;20669;-89
2022/01/22 04:29:59;;;;;;;48.17;33.10;;;;;;;3.13;100.00;103138.00;4921657;29;20453;-89
2022/01/22 04:32:29;;;;;;;51.78;32.53;;;;;;;3.48;100.00;103199.00;4921819;29;20035;-89
2022/01/22 04:35:00;;;;;;;57.17;33.15;;;;;;;3.22;100.00;103156.13;4922064;29;20508;-89
2022/01/22 04:37:29;;;;;;;52.65;32.85;;;;;;;3.31;100.00;103162.66;4905865;29;20157;-89
2022/01/22 04:39:59;;;;;;;48.55;32.47;;;;;;;3.44;100.00;103173.34;4921722;29;20119;-90
2022/01/22 04:42:32;;;;;;;47.92;32.15;;;;;;;3.19;100.00;103142.94;4921627;29;20365;-89
2022/01/22 04:55:51;;;;;;;53.65;32.85;;;;;;;3.51;100.00;103174.63;4920948;29;20098;-89
2022/01/22 04:58:26;;;;;;;49.83;33.40;;;;;;;3.36;100.00;103157.81;4905256;29;20035;-89
2022/01/22 05:00:53;;;;;;;47.28;32.20;;;;;;;3.32;100.00;103146.47;4921185;29;20114;-88
2022/01/22 05:03:20;;;;;;;47.40;32.33;;;;;;;3.43;100.00;103161.78;4920673;29;20055;-89
2022/01/22 05:05:46;;;;;;;45.15;31.73;;;;;;;3.40;100.00;103147.72;4921236;29;20039;-89
2022/01/22 05:08:12;;;;;;;52.55;32.78;;;;;;;3.50;100.00;103173.78;4920804;29;20065;-89
2022/01/22 05:10:45;;;;;;;51.45;31.23;;;;;;;3.86;100.00;103224.91;4921433;29;20039;-89
2022/01/22 05:13:15;;;;;;;48.97;32.50;;;;;;;3.74;100.00;103196.28;4920761;29;20061;-89
2022/01/22 05:15:42;;;;;;;47.35;32.10;;;;;;;3.42;100.00;103146.63;4921121;29;20397;-89
2022/01/22 05:18:09;;;;;;;50.97;31.90;;;;;;;3.88;100.00;103219.41;4921283;29;20091;-89
2022/01/22 05:20:46;;;;;;;47.15;31.33;;;;;;;3.75;100.00;103193.47;4905033;29;20409;-89
2022/01/22 05:23:23;;;;;;;47.25;30.80;;;;;;;3.66;100.00;103181.59;4906414;29;20032;-89
2022/01/22 05:25:55;;;;;;;45.67;30.02;;;;;;;3.65;100.00;103179.84;4920732;29;20070;-89
2022/01/22 05:32:16;;;;;;;47.00;30.52;;;;;;;3.51;100.00;103140.63;4918491;29;20107;-89
2022/01/22 05:36:58;;;;;;;52.70;31.83;;;;;;;3.79;100.00;103184.19;4920196;29;20405;-90
2022/01/22 05:39:28;;;;;;;46.80;30.52;;;;;;;3.57;100.00;103136.59;4933855;29;20099;-89
2022/01/22 05:41:58;;;;;;;52.53;30.70;;;;;;;3.78;100.00;103178.94;4927350;29;20028;-89
2022/01/22 05:44:28;;;;;;;46.17;30.60;;;;;;;3.54;100.00;103144.88;4918642;29;20111;-89
2022/01/22 05:47:03;;;;;;;44.92;30.63;;;;;;;3.82;100.00;103192.06;4917545;29;20115;-89
2022/01/22 05:49:31;;;;;;;49.70;30.30;;;;;;;3.63;100.00;103163.00;4903319;29;20051;-89
2022/01/22 05:51:59;;;;;;;49.88;30.63;;;;;;;3.81;100.00;103187.66;4917250;29;20084;-89
2022/01/22 05:59:43;;;;;;;45.63;30.25;;;;;;;3.60;100.00;103155.19;4918738;29;20131;-89
2022/01/22 06:02:25;;;;;;;45.90;29.55;;;;;;;3.89;100.00;103191.59;4917408;29;20029;-90
2022/01/22 06:04:53;;;;;;;48.47;30.02;;;;;;;4.06;100.00;103228.81;4917011;29;20028;-88
2022/01/22 06:07:19;;;;;;;45.72;28.65;;;;;;;3.92;100.00;103205.63;4901237;29;20180;-89
2022/01/22 06:10:14;;;;;;;47.33;29.73;;;;;;;3.78;100.00;103182.50;4917100;29;20481;-90
2022/01/22 06:13:09;;;;;;;46.95;29.83;;;;;;;3.93;100.00;103211.91;4917387;29;20396;-90
2022/01/22 06:15:36;;;;;;;46.85;28.13;;;;;;;3.92;100.00;103208.31;4918313;29;20040;-89
2022/01/22 06:18:27;;;;;;;;;;;;;;;;;;;;;
2022/01/22 06:21:50;;;;;;;49.38;28.35;;;;;;;4.12;100.00;103240.91;4902927;29;20444;-94
2022/01/22 06:31:49;;;;;;;46.33;29.23;;;;;;;3.66;100.00;103159.22;4915841;29;20055;-93
2022/01/22 06:45:05;;;;;;;40.05;26.77;;;;;;;3.90;100.00;103172.69;4912484;29;20052;-91
2022/01/22 06:47:37;;;;;;;44.50;27.52;;;;;;;3.87;100.00;103159.47;4878946;29;20048;-91
2022/01/22 06:50:18;;;;;;;39.97;25.80;;;;;;;4.16;100.00;103224.47;4878937;29;20037;-90
2022/01/22 06:53:35;;;;;;;41.83;24.92;;;;;;;3.88;100.00;103177.28;4855685;29;20078;-91
2022/01/22 06:56:11;;;;;;;39.80;24.75;;;;;;;3.88;100.00;103176.44;4859439;29;20089;-91
2022/01/22 06:59:38;;;;;;;;;;;;;;;;;;;;;
2022/01/22 07:12:48;;;;;;;39.08;23.63;;;;;;;4.17;100.00;103234.22;4771064;29;20046;-93
2022/01/22 07:26:43;;;;;;;;;;;;;;;;;;;;;
2022/01/22 07:43:44;;;;;;;39.20;23.52;;;;;;;4.00;100.00;103224.75;4765750;30;20101;-92
2022/01/22 08:00:50;;;;;;;;;;;;;;;;;;;;;
2022/01/22 08:10:35;;;;;;;39.22;23.75;;;;;;;4.50;100.00;103293.63;4686239;30;20052;-94
2022/01/22 08:14:14;;;;;;;;;;;;;;;;;;;;;
2022/01/22 08:24:57;;;;;;;;;;;;;;;;;;;;;
2022/01/22 08:38:13;;;;;;;34.63;21.40;;;;;;;4.29;100.00;103215.47;4818264;29;20058;-95
2022/01/22 08:40:52;;;;;;;36.22;21.10;;;;;;;4.35;100.00;103226.59;4793667;29;20059;-93
2022/01/22 10:14:51;;;;;;;27.00;16.83;;;;;;;5.61;100.00;103364.03;4863250;29;20428;-94
2022/01/22 10:28:16;;;;;;;;;;;;;;;;;;;;;
2022/01/22 10:42:00;;;;;;;30.42;17.50;;;;;;;5.75;100.00;103362.94;4755502;30;20426;-94
2022/01/22 11:31:38;;;;;;;;;;;;;;;;;;;;;
2022/01/22 12:14:28;;;;;;;33.60;23.63;;;;;;;6.17;97.80;103348.00;4804601;29;20531;-93
2022/01/22 12:17:23;;;;;;;33.85;23.17;;;;;;;5.76;98.15;103275.75;4804809;29;21001;-93
2022/01/22 12:34:52;;;;;;;40.35;25.35;;;;;;;5.77;99.88;103360.13;4596975;31;20063;-94
2022/01/22 13:09:04;;;;;;;37.67;25.80;;;;;;;5.48;100.00;103322.91;4613636;31;20103;-91
2022/01/22 13:11:46;;;;;;;36.35;26.52;;;;;;;5.22;100.00;103282.72;4601506;31;20581;-92
2022/01/22 13:15:27;;;;;;;;;;;;;;;;;;;;;
2022/01/22 13:21:57;;;;;;;38.95;26.60;;;;;;;5.48;100.00;103319.34;4704616;29;20173;-93
2022/01/22 13:25:09;;;;;;;;;;;;;;;;;;;;;
2022/01/22 13:28:06;;;;;;;37.47;26.17;;;;;;;5.20;100.00;103271.22;4828248;29;20053;-93
2022/01/22 13:31:31;;;;;;;39.17;25.90;;;;;;;5.62;100.00;103343.34;4827551;29;20395;-93
2022/01/22 13:35:43;;;;;;;32.70;25.02;;;;;;;5.27;100.00;103288.63;4791225;29;20447;-94
2022/01/22 13:48:59;;;;;;;37.50;26.10;;;;;;;5.24;99.45;103272.72;4842445;29;20044;-93
2022/01/22 13:51:47;;;;;;;32.88;25.50;;;;;;;5.24;98.74;103283.47;4796523;29;20036;-93
2022/01/22 13:54:44;;;;;;;34.95;25.55;;;;;;;5.39;98.67;103304.78;4882624;29;20035;-93
2022/01/22 13:57:47;;;;;;;34.55;24.83;;;;;;;5.22;98.65;103274.63;4879432;29;20064;-95
2022/01/22 14:00:43;;;;;;;41.17;26.42;;;;;;;5.24;98.65;103277.22;4883014;29;20160;-94
2022/01/22 14:06:25;;;;;;;37.15;26.30;;;;;;;5.44;98.00;103313.34;4921233;29;20046;-91
2022/01/22 14:09:20;;;;;;;35.22;25.75;;;;;;;5.23;98.26;103279.06;4887016;29;20040;-92
2022/01/22 14:12:24;;;;;;;33.95;25.05;;;;;;;5.28;98.28;103289.47;4918704;29;20051;-92
2022/01/22 14:15:14;;;;;;;35.45;26.15;;;;;;;5.71;97.93;103348.00;4882225;29;20504;-93
2022/01/22 14:18:19;;;;;;;36.47;25.90;;;;;;;5.22;98.04;103281.88;4918106;29;20025;-92
2022/01/22 14:21:08;;;;;;;37.28;26.17;;;;;;;5.60;98.45;103340.78;4917415;29;20072;-93
2022/01/22 14:23:55;;;;;;;33.47;25.42;;;;;;;5.19;97.94;103288.34;4902454;29;20020;-92
2022/01/22 14:26:36;;;;;;;38.60;26.60;;;;;;;5.43;97.70;103327.78;4903586;29;20036;-92
2022/01/22 14:29:19;;;;;;;34.65;26.17;;;;;;;5.21;97.84;103274.75;4904493;29;20024;-93
2022/01/22 14:31:47;;;;;;;33.25;26.90;;;;;;;5.22;97.61;103280.03;4905343;29;20028;-92
2022/01/22 14:34:54;;;;;;;34.10;26.55;;;;;;;5.61;97.85;103353.28;4889733;29;20040;-92
2022/01/22 14:37:31;;;;;;;38.08;26.50;;;;;;;5.18;97.11;103275.88;4917285;29;20473;-92
2022/01/22 14:45:28;;;;;;;36.45;26.20;;;;;;;5.24;97.35;103299.63;4917889;29;20051;-92
2022/01/22 14:47:57;;;;;;;32.30;25.38;;;;;;;5.26;97.29;103300.34;4901213;29;20031;-92
2022/01/22 14:50:28;;;;;;;33.17;26.52;;;;;;;5.12;97.97;103279.03;4901451;29;20058;-92
2022/01/22 14:53:10;;;;;;;42.40;30.95;;;;;;;5.12;97.55;103281.72;4901589;29;20048;-93
2022/01/22 14:55:36;;;;;;;39.13;27.85;;;;;;;5.34;97.29;103321.28;4886790;29;20036;-92
2022/01/22 14:58:33;;;;;;;38.47;27.90;;;;;;;5.49;97.82;103335.38;4901309;29;20024;-92
2022/01/22 15:01:09;;;;;;;35.53;26.70;;;;;;;5.19;97.66;103288.34;4881728;29;20048;-92
2022/01/22 15:06:33;;;;;;;39.20;26.95;;;;;;;5.12;97.49;103275.50;4899427;29;20040;-93
2022/01/22 15:09:10;;;;;;;33.70;27.05;;;;;;;5.35;97.17;103303.31;4882894;29;20039;-92
2022/01/22 15:11:37;;;;;;;37.58;27.85;;;;;;;5.12;97.34;103267.41;4870868;29;20052;-91
2022/01/22 15:14:05;;;;;;;34.70;26.23;;;;;;;5.05;96.69;103269.75;4886365;29;20048;-90
2022/01/22 15:16:49;;;;;;;39.03;27.38;;;;;;;5.04;96.81;103254.56;4885777;29;20389;-90
2022/01/22 15:19:45;;;;;;;36.70;27.00;;;;;;;5.34;97.25;103297.03;4868231;29;20113;-85
2022/01/22 15:22:25;;;;;;;38.85;26.40;;;;;;;5.10;96.35;103265.69;4896361;29;20068;-90
2022/01/22 15:25:04;;;;;;;36.35;27.25;;;;;;;5.27;97.00;103301.22;4884271;29;20366;-90
2022/01/22 15:27:59;;;;;;;36.63;26.88;;;;;;;5.00;96.43;103256.63;4868726;29;20401;-89
2022/01/22 15:30:35;;;;;;;35.33;26.83;;;;;;;5.08;96.47;103262.28;4888748;29;20036;-90
2022/01/22 15:36:12;;;;;;;34.75;26.58;;;;;;;5.19;96.19;103292.88;4881662;29;20524;-89
2022/01/22 15:38:56;;;;;;;34.03;25.85;;;;;;;5.17;96.11;103290.31;4884383;29;20029;-90
2022/01/22 15:41:39;;;;;;;;;;;;;;;;;;;;;
2022/01/22 15:44:12;;;;;;;;;;;;;;;5.37;96.73;103325.56;4902872;29;20115;-91
2022/01/22 15:46:48;;;;;;;37.22;26.58;;;;;;;5.05;96.51;103281.34;4886681;29;19915;-90
2022/01/22 15:49:26;;;;;;;35.13;25.00;;;;;;;5.01;95.81;103284.41;4885890;29;20401;-89
2022/01/22 15:52:18;;;;;;;;;;;;;;;;;;;;;
2022/01/22 15:54:59;;;;;;;34.25;25.98;;;;;;;5.10;96.23;103318.66;4903135;29;20088;-90
2022/01/22 15:57:41;;;;;;;36.58;25.13;;;;;;;4.84;96.10;103274.94;4886053;29;20037;-90
2022/01/22 16:00:20;;;;;;;34.05;26.90;;;;;;;5.21;95.93;103359.09;4898272;29;20112;-90
2022/01/22 16:02:56;;;;;;;31.70;24.80;;;;;;;4.79;95.33;103294.13;4905276;29;20032;-89
2022/01/22 16:05:30;;;;;;;36.60;26.73;;;;;;;5.17;96.03;103362.97;4904498;29;20056;-90
2022/01/22 16:08:18;;;;;;;34.03;26.25;;;;;;;5.04;95.37;103344.22;4889260;29;20032;-90
2022/01/22 16:11:01;;;;;;;34.50;25.23;;;;;;;4.96;95.86;103319.75;4902897;29;20429;-90
2022/01/22 16:13:47;;;;;;;36.55;26.73;;;;;;;4.72;95.65;103298.25;4891074;29;20570;-92
2022/01/22 16:16:30;;;;;;;34.92;24.98;;;;;;;4.84;95.74;103310.78;4904008;29;20491;-92
2022/01/22 16:19:10;;;;;;;34.10;25.60;;;;;;;4.69;95.50;103288.56;4907600;29;20028;-91
2022/01/22 16:21:45;;;;;;;34.60;26.20;;;;;;;4.71;95.51;103294.72;4890852;29;20035;-92
2022/01/22 16:24:18;;;;;;;36.35;26.20;;;;;;;4.71;95.59;103293.84;4887824;29;20349;-92
2022/01/22 16:27:07;;;;;;;33.47;24.90;;;;;;;4.71;95.73;103286.66;4903450;29;20035;-92
2022/01/22 16:29:34;;;;;;;34.15;25.42;;;;;;;4.70;96.00;103298.38;4904387;29;20548;-92
2022/01/22 16:32:05;;;;;;;30.92;23.45;;;;;;;4.95;95.73;103341.38;4903793;29;20039;-92
2022/01/22 16:34:48;;;;;;;36.25;25.67;;;;;;;4.92;96.16;103347.84;4904457;29;20032;-92
2022/01/22 16:37:35;;;;;;;34.80;26.13;;;;;;;4.67;96.08;103303.97;4889373;29;20043;-92
2022/01/22 16:40:13;;;;;;;37.42;25.92;;;;;;;4.69;95.56;103303.88;4909949;29;20039;-92
2022/01/22 16:42:58;;;;;;;33.38;25.17;;;;;;;4.92;95.76;103346.00;4904914;29;20075;-91
2022/01/22 16:55:04;;;;;;;31.48;24.75;;;;;;;5.07;96.71;103370.88;4893660;29;20054;-92
2022/01/22 16:58:07;;;;;;;32.25;23.70;;;;;;;4.60;96.08;103304.56;4877067;29;20500;-93
2022/01/22 17:00:56;;;;;;;29.98;23.35;;;;;;;4.81;96.47;103342.41;4902622;29;20055;-92
2022/01/22 17:03:36;;;;;;;31.95;23.98;;;;;;;4.59;96.74;103308.22;4901959;29;20389;-93
2022/01/22 17:06:20;;;;;;;;;;;;;;;5.00;96.70;103382.25;4890112;29;20473;-93
2022/01/22 17:10:04;;;;;;;33.60;23.35;;;;;;;4.54;96.85;103308.56;4903262;29;19911;-93
2022/01/22 17:15:02;;;;;;;;;;;;;;;4.95;97.05;103374.53;4920569;29;20047;-92
2022/01/22 17:17:38;;;;;;;34.65;23.08;;;;;;;4.58;97.07;103326.19;4901921;29;19919;-93
2022/01/22 17:20:10;;;;;;;33.35;24.58;;;;;;;4.49;97.24;103308.06;4902749;29;20504;-92
2022/01/22 17:22:54;;;;;;;35.38;23.67;;;;;;;4.79;97.46;103376.66;4886828;29;20039;-92
2022/01/22 17:25:34;;;;;;;35.55;23.95;;;;;;;4.50;97.50;103323.22;4903536;29;20489;-92
2022/01/22 17:28:08;;;;;;;34.33;24.13;;;;;;;4.55;97.49;103338.03;4915418;29;20047;-92
2022/01/22 17:30:43;;;;;;;32.78;23.38;;;;;;;4.54;97.57;103339.00;4914511;29;20028;-91
2022/01/22 17:36:54;;;;;;;29.90;23.13;;;;;;;4.87;98.06;103398.44;4919319;29;20035;-92
2022/01/22 17:39:33;;;;;;;32.05;23.42;;;;;;;4.45;97.83;103328.09;4888822;29;20119;-93
2022/01/22 17:42:31;;;;;;;35.60;24.65;;;;;;;4.83;98.39;103395.13;4887818;29;20033;-92
2022/01/22 17:45:20;;;;;;;35.38;24.60;;;;;;;4.45;98.18;103323.56;4889574;29;20036;-92
2022/01/22 17:47:56;;;;;;;34.63;23.70;;;;;;;4.45;98.32;103338.84;4903624;29;20481;-92
2022/01/22 17:50:35;;;;;;;33.22;24.17;;;;;;;4.41;98.38;103330.13;4888092;29;20036;-92
2022/01/22 17:53:06;;;;;;;31.73;23.77;;;;;;;4.67;98.02;103381.97;4902662;29;20028;-92
2022/01/22 17:55:41;;;;;;;33.60;24.45;;;;;;;4.43;98.40;103340.75;4902212;29;20503;-92
2022/01/22 17:58:19;;;;;;;29.13;23.48;;;;;;;4.38;98.21;103328.53;4902367;29;20036;-92
2022/01/22 18:01:00;;;;;;;34.55;24.33;;;;;;;4.62;98.35;103368.03;4901971;29;20118;-92
2022/01/22 18:03:37;;;;;;;33.25;24.23;;;;;;;4.57;98.31;103362.97;4887292;29;20763;-92
2022/01/22 18:06:15;;;;;;;34.03;24.20;;;;;;;4.45;97.93;103344.22;4901889;29;20485;-93
2022/01/22 18:09:08;;;;;;;31.40;23.40;;;;;;;4.83;98.18;103397.81;4901923;29;20028;-92
2022/01/22 18:11:51;;;;;;;33.38;24.10;;;;;;;4.48;98.34;103342.16;4917574;29;20441;-92
2022/01/22 18:17:15;;;;;;;32.35;22.80;;;;;;;4.67;97.84;103379.28;4874844;29;19915;-92
2022/01/22 18:19:58;;;;;;;33.38;22.52;;;;;;;4.36;98.23;103337.69;4886693;29;20129;-92
2022/01/22 18:22:29;;;;;;;33.85;24.83;;;;;;;4.45;97.90;103357.66;4901913;29;20034;-92
2022/01/22 18:25:19;;;;;;;;;;;;;;;;;;;;;
2022/01/22 18:28:03;;;;;;;30.33;23.08;;;;;;;4.71;98.08;103407.66;4893200;29;20062;-92
2022/01/22 18:30:48;;;;;;;33.17;24.10;;;;;;;4.53;98.42;103374.06;4884276;29;20048;-92
2022/01/22 18:33:35;;;;;;;;;;;;;;;;;;;;;
2022/01/22 18:36:15;;;;;;;31.63;23.48;;;;;;;4.45;98.12;103369.25;4918754;29;20499;-92
2022/01/22 18:38:46;;;;;;;30.98;23.42;;;;;;;4.53;98.12;103374.06;4887468;29;20032;-92
2022/01/22 18:41:18;;;;;;;29.80;22.85;;;;;;;4.46;98.64;103370.97;4901759;29;20024;-92
2022/01/22 18:43:53;;;;;;;31.45;22.30;;;;;;;4.30;98.20;103349.75;4886655;29;20389;-92
2022/01/22 18:46:29;;;;;;;33.53;23.00;;;;;;;4.27;98.52;103341.91;4901157;29;20536;-92
2022/01/22 18:49:07;;;;;;;35.70;23.20;;;;;;;4.37;98.35;103360.88;4886981;29;20503;-92
2022/01/22 18:52:08;;;;;;;30.75;22.73;;;;;;;4.47;98.10;103374.53;4901215;29;20433;-92
2022/01/22 18:54:53;;;;;;;32.85;23.35;;;;;;;4.63;98.49;103403.84;4901122;29;20040;-92
2022/01/22 18:57:34;;;;;;;33.83;23.83;;;;;;;4.47;98.45;103391.50;4901723;29;20036;-92
2022/01/22 19:00:15;;;;;;;30.85;22.90;;;;;;;4.21;98.71;103340.53;4901392;29;20476;-92
2022/01/22 19:03:15;;;;;;;32.78;23.73;;;;;;;4.36;98.67;103376.16;4898349;29;20095;-91
2022/01/22 19:05:51;;;;;;;34.40;24.17;;;;;;;4.61;99.06;103420.09;4916881;29;20035;-92
2022/01/22 19:08:33;;;;;;;31.80;23.60;;;;;;;4.24;99.03;103339.44;4901217;29;20036;-92
2022/01/22 19:11:17;;;;;;;36.33;23.55;;;;;;;4.49;99.00;103386.03;4900989;29;20033;-92
2022/01/22 19:13:52;;;;;;;31.55;23.38;;;;;;;4.26;98.74;103344.72;4901241;29;20052;-93
2022/01/22 19:16:51;;;;;;;31.85;23.58;;;;;;;4.23;99.00;103337.72;4901094;29;20028;-91
2022/01/22 19:19:40;;;;;;;32.10;24.30;;;;;;;4.43;99.40;103376.59;4871777;29;20100;-93
2022/01/22 19:22:41;;;;;;;31.67;23.55;;;;;;;4.40;99.65;103379.50;4899772;29;20450;-92
2022/01/22 19:25:40;;;;;;;36.22;24.45;;;;;;;4.19;99.85;103341.59;4900919;29;20473;-93
2022/01/22 19:28:32;;;;;;;35.25;25.25;;;;;;;4.17;99.97;103344.41;4917210;29;20115;-92
2022/01/22 19:31:10;;;;;;;36.47;25.83;;;;;;;4.13;99.57;103339.38;4901323;29;20028;-92
2022/01/22 19:33:59;;;;;;;35.47;25.60;;;;;;;4.09;100.00;103332.50;4900914;29;20374;-92
2022/01/22 19:36:43;;;;;;;36.35;26.10;;;;;;;4.06;100.00;103332.72;4900646;29;20039;-93
2022/01/22 19:39:22;;;;;;;34.35;25.65;;;;;;;4.09;100.00;103335.19;4900967;29;20063;-92
2022/01/22 19:41:54;;;;;;;37.45;26.17;;;;;;;4.05;100.00;103326.50;4900658;29;20091;-91
2022/01/22 19:44:34;;;;;;;36.60;26.45;;;;;;;4.08;100.00;103336.16;4900977;29;20079;-92
2022/01/22 19:47:28;;;;;;;36.95;26.02;;;;;;;4.06;100.00;103327.34;4903524;29;20437;-93
2022/01/22 19:50:26;;;;;;;36.55;24.73;;;;;;;4.28;100.00;103348.13;4887303;29;20457;-93
2022/01/22 19:53:08;;;;;;;39.15;27.08;;;;;;;4.05;100.00;103331.88;4904334;29;20370;-92
2022/01/22 19:55:54;;;;;;;38.05;27.60;;;;;;;4.02;100.00;103330.25;4903854;29;20043;-93
2022/01/22 19:58:52;;;;;;;40.05;28.55;;;;;;;4.27;100.00;103376.00;4889951;29;20048;-93
2022/01/22 20:01:33;;;;;;;42.25;29.20;;;;;;;4.17;100.00;103352.47;4895795;29;20140;-92
2022/01/22 20:05:09;;;;;;;;;;;;;;;;;;;;;
2022/01/22 20:07:45;;;;;;;42.00;28.88;;;;;;;4.06;100.00;103338.97;4897536;29;20075;-93
2022/01/22 20:10:52;;;;;;;39.15;29.95;;;;;;;4.02;100.00;103327.56;4907295;29;20032;-92
2022/01/22 20:17:12;;;;;;;;;;;;;;;;;;;;;
2022/01/22 20:23:57;;;;;;;41.33;30.13;;;;;;;4.14;100.00;103354.53;4900557;29;20036;-92
2022/01/22 20:27:12;;;;;;;40.20;30.50;;;;;;;4.07;100.00;103345.19;4883620;29;20036;-92
2022/01/22 20:30:25;;;;;;;40.85;29.95;;;;;;;4.06;100.00;103349.72;4871454;29;20040;-93
2022/01/22 20:43:14;;;;;;;40.03;30.02;;;;;;;4.20;100.00;103370.19;4790676;29;20042;-93
2022/01/22 20:48:42;;;;;;;;;;;;;;;;;;;;;
2022/01/22 20:50:45;;;;;;;40.80;29.20;;;;;;;4.37;100.00;103402.09;5055983;28;20031;-90
2022/01/22 20:54:04;;;;;;;43.75;30.25;;;;;;;4.10;100.00;103345.81;5116410;28;20023;-91
2022/01/22 21:10:35;;;;;;;43.15;31.05;;;;;;;3.93;100.00;103330.06;5061553;28;20112;-91
2022/01/22 21:14:03;;;;;;;;;;;;;;;;;;;;;